Erieau, Canada
Current Conditions -  °F | °C
As of 3:29 PM on Thursday 29 Jan 2015 (Local Time) from CYCK Reporting Station
Light Rain Light Rain  
Wind Chill: 25°   Ceiling: 1400
Heat Index: 34°   Visibility: 4mi
Dew Point: 32°   Wind: 13mph
Humidity: 93%   Direction: 300°WNW
Pressure: 29.71"   Gusts: NA
Location:  42.25°N, 81.92°W
Report Text: CYCK 292029Z AUTO 30011KT 4SM -RA BR BKN014 OVC023 01/00 A2971 RMK SLP069
Loading
Personal Weather Stations






























Interactive Weather Map New forecast layout! Learn more

10-Day Weather Forecast

Advertisements
Track Severe Weather on mobile